South Lexington, North Carolina
Current Conditions -  °F | °C
As of 8:35 PM on Monday 22 Dec 2014 (Local Time) from KEXX Reporting Station
Haze Haze  
Wind Chill: 36°   Ceiling: 400
Heat Index: 36°   Visibility: 5mi
Dew Point: 35°   Wind: 3mph
Humidity: 96%   Direction: 50°NE
Pressure: 30.05"   Gusts: NA
Location:  35.7974°N, 80.2541°W
Report Text: KEXX 230135Z AUTO 05003KT 5SM BR OVC004 02/02 A3005 RMK AO2 T00220016
Loading
Personal Weather Stations






























Interactive Weather Map New forecast layout! Learn more

10-Day Weather Forecast

Advertisements
Track Severe Weather on mobile